createdAt,value
2018-09-03T00:02:21.563Z,3.50
2018-09-03T00:04:54.872Z,3.87
2018-09-03T00:07:28.297Z,4.00
2018-09-03T00:10:01.603Z,3.77
2018-09-03T00:12:35.007Z,4.42
2018-09-03T00:15:08.293Z,3.60
2018-09-03T00:17:41.612Z,3.80
2018-09-03T00:20:14.905Z,3.90
2018-09-03T00:22:48.218Z,3.90
2018-09-03T00:25:21.540Z,4.45
2018-09-03T00:27:54.849Z,4.08
2018-09-03T00:30:28.142Z,3.35
2018-09-03T00:33:06.906Z,3.67
2018-09-03T00:35:45.384Z,3.70
2018-09-03T00:38:24.085Z,4.00
2018-09-03T00:41:02.561Z,4.12
2018-09-03T00:43:41.188Z,4.55
2018-09-03T00:47:18.525Z,4.55
2018-09-03T00:49:51.858Z,3.90
2018-09-03T00:52:25.140Z,7.25
2018-09-03T00:54:58.480Z,4.67
2018-09-03T00:57:31.805Z,3.65
2018-09-03T01:00:05.250Z,4.62
2018-09-03T01:02:38.561Z,4.05
2018-09-03T01:05:11.876Z,4.60
2018-09-03T01:07:45.173Z,5.05
2018-09-03T01:10:18.472Z,4.58
2018-09-03T01:12:51.856Z,4.40
2018-09-03T01:15:26.700Z,4.62
2018-09-03T01:18:01.637Z,4.45
2018-09-03T01:20:35.731Z,4.45
2018-09-03T01:23:09.036Z,4.75
2018-09-03T01:25:42.333Z,4.97
2018-09-03T01:28:15.609Z,4.83
2018-09-03T01:30:48.915Z,5.95
2018-09-03T01:33:22.305Z,4.30
2018-09-03T01:35:55.776Z,4.50
2018-09-03T01:38:29.069Z,5.40
2018-09-03T01:41:02.389Z,4.72
2018-09-03T01:43:35.689Z,5.97
2018-09-03T01:46:08.996Z,5.97
2018-09-03T01:48:42.699Z,5.72
2018-09-03T01:51:16.025Z,6.62
2018-09-03T01:53:49.313Z,8.30
2018-09-03T01:56:22.744Z,6.80
2018-09-03T01:58:56.036Z,6.17
2018-09-03T02:01:29.364Z,5.50
2018-09-03T02:04:02.669Z,5.75
2018-09-03T02:06:35.991Z,5.97
2018-09-03T02:09:10.563Z,5.17
2018-09-03T02:11:43.864Z,5.28
2018-09-03T02:14:17.199Z,6.15
2018-09-03T02:16:50.493Z,6.33
2018-09-03T02:19:23.805Z,6.00
2018-09-03T02:21:57.105Z,5.60
2018-09-03T02:24:30.403Z,5.72
2018-09-03T02:27:03.710Z,6.70
2018-09-03T02:29:37.033Z,5.87
2018-09-03T02:32:10.316Z,5.90
2018-09-03T02:34:43.625Z,5.87
2018-09-03T02:37:17.229Z,6.72
2018-09-03T02:39:50.553Z,6.00
2018-09-03T02:42:23.837Z,7.00
2018-09-03T02:44:57.142Z,6.78
2018-09-03T02:47:30.436Z,9.25
2018-09-03T02:50:03.785Z,6.92
2018-09-03T02:52:37.203Z,6.90
2018-09-03T02:55:10.625Z,5.97
2018-09-03T02:57:43.929Z,5.67
2018-09-03T03:00:17.245Z,7.28
2018-09-03T03:02:50.564Z,7.70
2018-09-03T03:05:23.869Z,8.28
2018-09-03T03:07:57.586Z,8.90
2018-09-03T03:10:30.926Z,7.58
2018-09-03T03:13:04.229Z,6.53
2018-09-03T03:15:37.616Z,6.90
2018-09-03T03:18:10.920Z,7.45
2018-09-03T03:20:44.233Z,7.10
2018-09-03T03:23:17.521Z,7.85
2018-09-03T03:25:50.845Z,6.90
2018-09-03T03:28:24.154Z,7.22
2018-09-03T03:30:57.473Z,8.33
2018-09-03T03:33:30.811Z,8.43
2018-09-03T03:36:06.085Z,6.70
2018-09-03T03:38:39.417Z,7.28
2018-09-03T03:41:12.745Z,7.47
2018-09-03T03:43:46.072Z,10.05
2018-09-03T03:46:19.384Z,7.47
2018-09-03T03:48:52.671Z,9.58
2018-09-03T03:51:26.012Z,9.75
2018-09-03T03:53:59.320Z,7.45
2018-09-03T03:56:33.224Z,9.40
2018-09-03T03:59:07.001Z,9.88
2018-09-03T04:01:40.345Z,7.62
2018-09-03T04:04:13.629Z,8.20
2018-09-03T04:06:46.981Z,9.13
2018-09-03T04:09:20.314Z,8.65
2018-09-03T04:11:53.641Z,7.75
2018-09-03T04:14:26.938Z,7.83
2018-09-03T04:17:00.263Z,8.95
2018-09-03T04:19:33.596Z,8.80
2018-09-03T04:22:06.913Z,8.93
2018-09-03T04:24:40.202Z,7.72
2018-09-03T04:27:13.538Z,8.10
2018-09-03T04:29:46.855Z,7.50
2018-09-03T04:32:20.174Z,7.75
2018-09-03T04:34:53.519Z,11.00
2018-09-03T04:37:26.831Z,9.25
2018-09-03T04:40:00.119Z,10.20
2018-09-03T04:42:33.665Z,9.80
2018-09-03T04:45:07.000Z,8.73
2018-09-03T04:47:40.309Z,7.58
2018-09-03T04:50:13.616Z,8.18
2018-09-03T04:52:46.933Z,8.85
2018-09-03T04:55:20.466Z,8.63
2018-09-03T04:57:53.752Z,8.83
2018-09-03T05:00:27.044Z,8.38
2018-09-03T05:03:00.369Z,10.50
2018-09-03T05:05:33.831Z,8.53
2018-09-03T05:08:07.041Z,7.30
2018-09-03T05:10:40.351Z,10.43
2018-09-03T05:13:13.677Z,8.63
2018-09-03T05:15:46.973Z,8.03
2018-09-03T05:18:20.330Z,8.53
2018-09-03T05:20:53.652Z,8.18
2018-09-03T05:23:26.999Z,9.20
2018-09-03T05:26:00.458Z,7.78
2018-09-03T05:28:33.808Z,10.13
2018-09-03T05:31:07.144Z,8.05
2018-09-03T05:33:40.468Z,8.28
2018-09-03T05:36:13.784Z,7.70
2018-09-03T05:38:49.285Z,8.90
2018-09-03T05:41:22.727Z,7.90
2018-09-03T05:43:56.129Z,7.80
2018-09-03T05:46:29.392Z,7.92
2018-09-03T05:49:02.809Z,7.10
2018-09-03T05:51:37.157Z,7.50
2018-09-03T05:54:10.473Z,8.18
2018-09-03T05:56:43.765Z,7.55
2018-09-03T05:59:17.125Z,7.12
2018-09-03T06:01:50.397Z,7.70
2018-09-03T06:04:23.729Z,8.70
2018-09-03T06:06:57.025Z,9.00
2018-09-03T06:09:30.360Z,7.95
2018-09-03T06:12:03.683Z,7.08
2018-09-03T06:14:36.993Z,7.70
2018-09-03T06:17:10.293Z,7.92
2018-09-03T06:19:43.617Z,7.62
2018-09-03T06:22:16.920Z,6.92
2018-09-03T06:24:50.273Z,7.12
2018-09-03T06:27:23.581Z,8.30
2018-09-03T06:29:56.928Z,7.67
2018-09-03T06:32:30.234Z,7.10
2018-09-03T06:35:03.578Z,6.72
2018-09-03T06:37:36.882Z,7.87
2018-09-03T06:40:10.218Z,7.80
2018-09-03T06:42:43.516Z,7.70
2018-09-03T06:45:16.862Z,7.45
2018-09-03T06:47:50.163Z,9.33
2018-09-03T06:50:23.500Z,7.80
2018-09-03T06:52:56.792Z,8.13
2018-09-03T06:55:30.114Z,7.53
2018-09-03T06:58:04.364Z,8.15
2018-09-03T07:00:37.700Z,8.18
2018-09-03T07:03:11.006Z,7.95
2018-09-03T07:05:44.344Z,8.93
2018-09-03T07:08:17.916Z,8.10
2018-09-03T07:10:51.265Z,7.53
2018-09-03T07:13:24.579Z,8.00
2018-09-03T07:15:57.901Z,7.20
2018-09-03T07:18:31.277Z,7.40
2018-09-03T07:21:04.625Z,7.92
2018-09-03T07:23:37.952Z,7.80
2018-09-03T07:26:11.276Z,7.20
2018-09-03T07:28:44.683Z,7.30
2018-09-03T07:31:17.950Z,7.17
2018-09-03T07:33:51.268Z,7.67
2018-09-03T07:36:24.589Z,7.37
2018-09-03T07:38:57.915Z,7.33
2018-09-03T07:41:31.484Z,8.00
2018-09-03T07:44:04.863Z,7.72
2018-09-03T07:46:38.172Z,9.73
2018-09-03T07:49:11.483Z,9.25
2018-09-03T07:51:44.784Z,7.42
2018-09-03T07:54:18.109Z,8.18
2018-09-03T07:56:51.421Z,7.30
2018-09-03T07:59:24.742Z,8.78
2018-09-03T08:01:58.100Z,7.83
2018-09-03T08:04:31.401Z,7.55
2018-09-03T08:07:04.729Z,7.50
2018-09-03T08:09:38.025Z,7.78
2018-09-03T08:12:11.298Z,7.37
2018-09-03T08:14:44.595Z,7.55
2018-09-03T08:17:17.880Z,8.10
2018-09-03T08:19:51.201Z,8.20
2018-09-03T08:22:24.486Z,8.58
2018-09-03T08:24:57.794Z,8.18
2018-09-03T08:27:31.177Z,8.38
2018-09-03T08:30:05.210Z,11.60
2018-09-03T08:32:38.569Z,7.90
2018-09-03T08:35:12.140Z,7.40
2018-09-03T08:37:45.432Z,8.33
2018-09-03T08:40:18.756Z,7.80
2018-09-03T08:42:52.038Z,8.75
2018-09-03T08:45:25.331Z,9.13
2018-09-03T08:47:58.634Z,9.30
2018-09-03T08:50:31.961Z,9.83
2018-09-03T08:53:05.266Z,10.03
2018-09-03T08:55:38.569Z,9.88
2018-09-03T08:58:11.860Z,10.20
2018-09-03T09:00:45.168Z,10.63
2018-09-03T09:03:23.872Z,10.55
2018-09-03T09:05:57.225Z,10.85
2018-09-03T09:08:30.497Z,11.57
2018-09-03T09:11:04.047Z,11.28
2018-09-03T09:13:37.373Z,10.50
2018-09-03T09:16:10.738Z,10.50
2018-09-03T09:18:44.032Z,11.30
2018-09-03T09:21:17.353Z,10.78
2018-09-03T09:23:50.668Z,13.53
2018-09-03T09:26:24.293Z,10.23
2018-09-03T09:28:57.593Z,10.08
2018-09-03T09:31:31.228Z,9.50
2018-09-03T09:34:04.569Z,10.68
2018-09-03T09:36:37.901Z,11.03
2018-09-03T09:39:11.237Z,10.40
2018-09-03T09:41:44.550Z,11.30
2018-09-03T09:44:17.847Z,10.48
2018-09-03T09:46:51.183Z,11.90
2018-09-03T09:49:24.533Z,10.78
2018-09-03T09:51:57.828Z,11.18
2018-09-03T09:54:31.120Z,10.75
2018-09-03T09:57:04.702Z,12.05
2018-09-03T09:59:37.996Z,11.30
2018-09-03T10:02:11.332Z,11.30
2018-09-03T10:04:44.841Z,10.72
2018-09-03T10:07:18.157Z,10.03
2018-09-03T10:09:51.452Z,10.80
2018-09-03T10:12:29.882Z,10.05
2018-09-03T10:15:03.671Z,10.50
2018-09-03T10:17:37.188Z,9.95
2018-09-03T10:20:10.505Z,10.75
2018-09-03T10:22:43.816Z,10.03
2018-09-03T10:25:17.244Z,10.40
2018-09-03T10:27:50.581Z,9.95
2018-09-03T10:30:23.973Z,10.10
2018-09-03T10:32:57.365Z,9.73
2018-09-03T10:35:30.669Z,10.43
2018-09-03T10:38:04.070Z,9.55
2018-09-03T10:40:37.461Z,9.15
2018-09-03T10:43:10.854Z,9.80
2018-09-03T10:45:46.256Z,10.53
2018-09-03T10:48:19.741Z,9.73
2018-09-03T10:50:53.126Z,10.48
2018-09-03T10:53:26.537Z,11.73
2018-09-03T10:55:59.962Z,13.98
2018-09-03T10:58:33.340Z,13.45
2018-09-03T11:01:06.625Z,10.78
2018-09-03T11:03:40.081Z,10.88
2018-09-03T11:06:13.517Z,11.03
2018-09-03T11:08:47.064Z,13.10
2018-09-03T11:11:21.342Z,11.15
2018-09-03T11:13:54.670Z,10.10
2018-09-03T11:16:27.981Z,11.20
2018-09-03T11:19:01.836Z,11.15
2018-09-03T11:21:35.314Z,11.15
2018-09-03T11:24:08.471Z,11.18
2018-09-03T11:26:41.858Z,11.85
2018-09-03T11:29:16.781Z,12.30
2018-09-03T11:31:50.087Z,11.60
2018-09-03T11:34:23.413Z,11.43
2018-09-03T11:36:56.781Z,11.57
2018-09-03T11:39:30.098Z,10.72
2018-09-03T11:42:04.964Z,10.93
2018-09-03T11:44:38.394Z,12.28
2018-09-03T11:47:11.780Z,11.10
2018-09-03T11:49:45.069Z,11.53
2018-09-03T11:52:18.362Z,10.78
2018-09-03T11:54:52.807Z,11.60
2018-09-03T11:57:26.151Z,11.12
2018-09-03T11:59:59.470Z,11.65
2018-09-03T12:02:32.793Z,11.10
2018-09-03T12:05:06.590Z,11.40
2018-09-03T12:07:40.117Z,12.68
2018-09-03T12:10:13.416Z,11.38
2018-09-03T12:12:46.721Z,11.18
2018-09-03T12:15:26.824Z,10.80
2018-09-03T12:18:00.095Z,11.60
2018-09-03T12:20:33.560Z,10.28
2018-09-03T12:23:06.855Z,11.50
2018-09-03T12:25:40.157Z,10.80
2018-09-03T12:28:13.472Z,11.85
2018-09-03T12:30:46.784Z,11.53
2018-09-03T12:33:20.073Z,10.72
2018-09-03T12:35:53.396Z,11.73
2018-09-03T12:38:26.689Z,11.30
2018-09-03T12:41:00.014Z,10.55
2018-09-03T12:43:33.406Z,10.88
2018-09-03T12:46:07.880Z,17.07
2018-09-03T12:48:41.164Z,12.63
2018-09-03T12:51:14.510Z,11.90
2018-09-03T12:53:49.473Z,11.55
2018-09-03T12:56:22.790Z,11.38
2018-09-03T12:58:56.629Z,11.70
2018-09-03T13:01:29.960Z,11.63
2018-09-03T13:04:03.909Z,12.20
2018-09-03T13:06:37.248Z,12.07
2018-09-03T13:09:10.661Z,11.90
2018-09-03T13:11:43.993Z,11.48
2018-09-03T13:14:17.332Z,11.93
2018-09-03T13:16:52.004Z,11.30
2018-09-03T13:19:25.368Z,10.72
2018-09-03T13:21:59.316Z,11.68
2018-09-03T13:24:32.810Z,12.45
2018-09-03T13:27:06.185Z,11.33
2018-09-03T13:29:39.497Z,11.63
2018-09-03T13:32:12.797Z,12.10
2018-09-03T13:34:46.157Z,11.10
2018-09-03T13:37:19.469Z,11.78
2018-09-03T13:39:52.875Z,10.58
2018-09-03T13:42:26.262Z,12.07
2018-09-03T13:44:59.780Z,12.37
2018-09-03T13:47:33.109Z,11.63
2018-09-03T13:50:06.809Z,10.58
2018-09-03T13:52:41.075Z,12.05
2018-09-03T13:55:14.527Z,12.00
2018-09-03T13:57:47.772Z,11.35
2018-09-03T14:00:21.085Z,10.78
2018-09-03T14:02:54.384Z,11.48
2018-09-03T14:05:27.732Z,11.55
2018-09-03T14:08:01.154Z,11.03
2018-09-03T14:10:34.466Z,11.83
2018-09-03T14:13:07.862Z,11.73
2018-09-03T14:15:41.205Z,11.73
2018-09-03T14:18:14.503Z,11.88
2018-09-03T14:20:48.055Z,12.00
2018-09-03T14:23:21.384Z,11.43
2018-09-03T14:25:54.826Z,11.60
2018-09-03T14:28:28.678Z,11.90
2018-09-03T14:31:02.080Z,10.75
2018-09-03T14:33:35.385Z,9.93
2018-09-03T14:36:08.836Z,10.28
2018-09-03T14:38:42.295Z,10.95
2018-09-03T14:41:15.613Z,10.08
2018-09-03T14:43:48.949Z,10.05
2018-09-03T14:46:22.300Z,10.65
2018-09-03T14:48:55.623Z,11.85
2018-09-03T14:51:29.059Z,11.48
2018-09-03T14:54:02.347Z,10.32
2018-09-03T14:56:35.660Z,15.50
2018-09-03T14:59:09.013Z,11.33
2018-09-03T15:01:42.340Z,10.98
2018-09-03T15:04:15.678Z,11.43
2018-09-03T15:06:49.021Z,11.30
2018-09-03T15:09:22.363Z,11.70
2018-09-03T15:11:55.677Z,12.33
2018-09-03T15:14:28.970Z,12.25
2018-09-03T15:17:02.353Z,10.80
2018-09-03T15:19:35.639Z,10.95
2018-09-03T15:22:08.985Z,12.40
2018-09-03T15:24:42.327Z,11.20
2018-09-03T15:27:15.619Z,10.30
2018-09-03T15:29:48.892Z,10.90
2018-09-03T15:32:22.218Z,10.43
2018-09-03T15:34:55.565Z,16.62
2018-09-03T15:37:28.886Z,11.70
2018-09-03T15:40:02.205Z,11.20
2018-09-03T15:42:35.681Z,11.85
2018-09-03T15:45:09.070Z,11.73
2018-09-03T15:47:42.385Z,10.25
2018-09-03T15:50:16.526Z,11.48
2018-09-03T15:52:50.022Z,11.22
2018-09-03T15:55:23.536Z,11.73
2018-09-03T15:57:57.372Z,10.90
2018-09-03T16:00:30.660Z,11.85
2018-09-03T16:03:04.170Z,11.10
2018-09-03T16:05:37.431Z,11.45
2018-09-03T16:08:10.877Z,11.55
2018-09-03T16:10:44.169Z,11.45
2018-09-03T16:13:17.503Z,11.05
2018-09-03T16:15:50.994Z,10.88
2018-09-03T16:18:24.437Z,10.50
2018-09-03T16:20:57.857Z,12.25
2018-09-03T16:23:31.413Z,12.82
2018-09-03T16:26:04.714Z,12.60
2018-09-03T16:28:38.047Z,10.72
2018-09-03T16:31:11.358Z,10.93
2018-09-03T16:33:44.789Z,10.60
2018-09-03T16:36:18.114Z,11.18
2018-09-03T16:38:51.489Z,11.05
2018-09-03T16:41:24.798Z,11.05
2018-09-03T16:43:58.122Z,11.10
2018-09-03T16:46:31.474Z,11.28
2018-09-03T16:49:04.911Z,10.00
2018-09-03T16:51:38.127Z,11.48
2018-09-03T16:54:11.473Z,11.00
2018-09-03T16:56:44.762Z,12.05
2018-09-03T16:59:18.186Z,10.95
2018-09-03T17:01:52.427Z,10.40
2018-09-03T17:04:25.846Z,11.45
2018-09-03T17:06:59.213Z,11.05
2018-09-03T17:09:32.580Z,11.03
2018-09-03T17:12:05.878Z,11.18
2018-09-03T17:14:39.198Z,11.33
2018-09-03T17:17:12.500Z,10.78
2018-09-03T17:19:45.890Z,11.30
2018-09-03T17:22:19.326Z,11.28
2018-09-03T17:24:52.712Z,11.22
2018-09-03T17:27:26.027Z,11.40
2018-09-03T17:29:59.469Z,11.70
2018-09-03T17:32:32.883Z,11.33
2018-09-03T17:35:06.248Z,11.00
2018-09-03T17:37:40.094Z,10.35
2018-09-03T17:40:13.525Z,10.93
2018-09-03T17:42:46.927Z,10.45
2018-09-03T17:45:20.240Z,11.10
2018-09-03T17:47:53.543Z,10.93
2018-09-03T17:53:14.768Z,10.85
2018-09-03T17:55:48.073Z,10.60
2018-09-03T17:58:21.411Z,11.18
2018-09-03T18:00:54.756Z,11.18
2018-09-03T18:03:28.060Z,10.65
2018-09-03T18:06:01.387Z,10.72
2018-09-03T18:08:34.740Z,11.18
2018-09-03T18:11:08.089Z,11.00
2018-09-03T18:13:42.050Z,11.70
2018-09-03T18:16:15.468Z,10.80
2018-09-03T18:18:48.808Z,11.57
2018-09-03T18:21:23.094Z,10.35
2018-09-03T18:23:56.500Z,11.60
2018-09-03T18:26:29.809Z,11.75
2018-09-03T18:29:03.221Z,10.85
2018-09-03T18:31:36.544Z,11.80
2018-09-03T18:34:09.845Z,11.20
2018-09-03T18:36:43.365Z,10.85
2018-09-03T18:39:16.836Z,10.35
2018-09-03T18:41:50.197Z,10.93
2018-09-03T18:44:24.384Z,11.85
2018-09-03T18:46:57.785Z,10.80
2018-09-03T18:49:31.157Z,10.45
2018-09-03T18:52:04.546Z,11.35
2018-09-03T18:54:38.265Z,11.68
2018-09-03T18:57:11.715Z,10.90
2018-09-03T18:59:45.064Z,11.30
2018-09-03T19:02:18.443Z,11.28
2018-09-03T19:04:51.765Z,12.37
2018-09-03T19:07:25.284Z,11.28
2018-09-03T19:09:58.678Z,12.30
2018-09-03T19:12:31.949Z,11.45
2018-09-03T19:15:05.784Z,12.80
2018-09-03T19:17:39.116Z,12.82
2018-09-03T19:20:12.512Z,12.75
2018-09-03T19:22:45.928Z,11.63
2018-09-03T19:25:19.222Z,11.60
2018-09-03T19:29:17.013Z,12.53
2018-09-03T19:31:50.344Z,11.93
2018-09-03T19:34:23.646Z,12.28
2018-09-03T19:36:56.968Z,11.70
2018-09-03T19:39:30.316Z,12.45
2018-09-03T19:42:03.651Z,12.33
2018-09-03T19:44:37.029Z,11.93
2018-09-03T19:47:10.500Z,12.82
2018-09-03T19:49:43.850Z,12.40
2018-09-03T19:52:17.216Z,12.03
2018-09-03T19:54:51.584Z,11.12
2018-09-03T19:57:24.994Z,11.08
2018-09-03T19:59:58.351Z,11.38
2018-09-03T20:02:31.736Z,12.07
2018-09-03T20:05:05.069Z,11.57
2018-09-03T20:07:38.444Z,10.48
2018-09-03T20:10:11.837Z,10.35
2018-09-03T20:12:45.268Z,9.48
2018-09-03T20:15:23.952Z,10.63
2018-09-03T20:17:57.273Z,10.10
2018-09-03T20:20:30.633Z,10.53
2018-09-03T20:23:04.029Z,9.53
2018-09-03T20:25:37.389Z,10.30
2018-09-03T20:28:10.701Z,10.48
2018-09-03T20:30:44.100Z,10.10
2018-09-03T20:33:17.312Z,9.78
2018-09-03T20:35:50.728Z,9.40
2018-09-03T20:38:24.085Z,9.18
2018-09-03T20:40:57.484Z,10.35
2018-09-03T20:43:30.791Z,9.20
2018-09-03T20:46:04.419Z,9.30
2018-09-03T20:48:37.747Z,8.73
2018-09-03T20:51:11.035Z,8.73
2018-09-03T20:53:44.464Z,9.00
2018-09-03T20:56:17.760Z,9.73
2018-09-03T20:58:51.196Z,9.15
2018-09-03T21:01:24.499Z,8.98
2018-09-03T21:03:57.876Z,8.93
2018-09-03T21:06:31.453Z,8.65
2018-09-03T21:09:05.673Z,8.43
2018-09-03T21:11:38.958Z,9.10
2018-09-03T21:14:12.249Z,7.80
2018-09-03T21:16:45.597Z,8.40
2018-09-03T21:19:18.901Z,7.75
2018-09-03T21:21:52.200Z,7.30
2018-09-03T21:24:25.494Z,7.50
2018-09-03T21:26:58.781Z,7.70
2018-09-03T21:29:32.116Z,7.90
2018-09-03T21:32:05.734Z,7.35
2018-09-03T21:34:39.052Z,6.97
2018-09-03T21:37:12.352Z,7.15
2018-09-03T21:39:45.741Z,7.37
2018-09-03T21:42:19.270Z,6.70
2018-09-03T21:44:52.710Z,7.90
2018-09-03T21:47:26.000Z,6.65
2018-09-03T21:49:59.837Z,7.95
2018-09-03T21:52:33.436Z,7.40
2018-09-03T21:55:06.780Z,7.95
2018-09-03T21:57:40.077Z,7.90
2018-09-03T22:00:13.432Z,6.10
2018-09-03T22:02:46.767Z,7.28
2018-09-03T22:05:20.069Z,8.83
2018-09-03T22:07:53.389Z,6.10
2018-09-03T22:10:26.697Z,7.37
2018-09-03T22:13:00.155Z,7.30
2018-09-03T22:15:33.476Z,7.85
2018-09-03T22:18:06.781Z,6.25
2018-09-03T22:20:40.207Z,6.10
2018-09-03T22:23:13.538Z,7.33
2018-09-03T22:25:46.875Z,5.87
2018-09-03T22:28:20.216Z,8.13
2018-09-03T22:30:53.551Z,6.15
2018-09-03T22:33:26.954Z,6.10
2018-09-03T22:36:00.386Z,6.37
2018-09-03T22:38:33.953Z,6.40
2018-09-03T22:41:07.470Z,7.05
2018-09-03T22:43:41.024Z,7.47
2018-09-03T22:46:14.461Z,5.85
2018-09-03T22:48:48.083Z,6.10
2018-09-03T22:51:21.487Z,6.83
2018-09-03T22:53:55.115Z,5.92
2018-09-03T22:56:28.547Z,5.92
2018-09-03T22:59:02.150Z,5.78
2018-09-03T23:01:35.627Z,5.10
2018-09-03T23:04:09.079Z,7.03
2018-09-03T23:06:42.704Z,9.53
2018-09-03T23:09:16.029Z,6.95
2018-09-03T23:11:49.341Z,6.03
2018-09-03T23:14:22.651Z,5.83
2018-09-03T23:16:55.969Z,6.95
2018-09-03T23:19:29.284Z,6.53
2018-09-03T23:22:02.663Z,6.45
2018-09-03T23:24:36.038Z,6.15
2018-09-03T23:27:09.337Z,5.83
2018-09-03T23:29:42.725Z,6.53
2018-09-03T23:32:16.035Z,6.22
2018-09-03T23:34:49.448Z,6.53
2018-09-03T23:37:23.594Z,6.65
2018-09-03T23:39:56.912Z,5.75
2018-09-03T23:42:30.232Z,6.17
2018-09-03T23:45:04.305Z,6.60
2018-09-03T23:47:37.629Z,5.87
2018-09-03T23:50:10.969Z,6.53
2018-09-03T23:52:44.320Z,6.12
2018-09-03T23:55:17.695Z,6.03
2018-09-03T23:57:51.016Z,7.17
